Time;durP1;ratioP1;P1;durP2;ratioP2;P2;SDS_P1;SDS_P2;PMS_P1;PMS_P2;Temp;Humidity;BMP_temperature;BMP_pressure;BME280_temperature;BME280_humidity;BME280_pressure;Samples;Min_cycle;Max_cycle;Signal;HPM_P1;HPM_P2
2021/10/20 00:02:12;;;;;;;4.38;3.40;;;12.40;80.20;;;10.76;88.89;96467.28;4991030;28;20469;-67
2021/10/20 00:04:38;;;;;;;5.05;3.03;;;12.40;80.20;;;10.73;88.11;96455.31;4958591;28;20042;-67
2021/10/20 00:07:03;;;;;;;6.43;3.63;;;12.40;80.20;;;10.68;88.11;96456.84;4974538;28;20038;-68
2021/10/20 00:09:29;;;;;;;6.03;3.85;;;12.30;80.20;;;10.65;88.93;96449.31;4958673;28;20138;-67
2021/10/20 00:11:55;;;;;;;4.85;3.35;;;12.30;80.20;;;10.62;88.56;96444.41;4968606;28;20035;-68
2021/10/20 00:14:21;;;;;;;4.78;3.20;;;12.30;80.30;;;10.60;89.47;96444.59;4963155;28;20407;-67
2021/10/20 00:16:46;;;;;;;4.28;3.25;;;12.20;80.40;;;10.59;88.94;96447.41;4980161;28;20697;-67
2021/10/20 00:19:12;;;;;;;4.70;3.08;;;12.30;80.50;;;10.59;89.59;96442.94;4990190;28;20035;-67
2021/10/20 00:21:38;;;;;;;3.63;3.13;;;12.20;80.50;;;10.56;89.50;96431.97;4990399;28;20038;-67
2021/10/20 00:24:04;;;;;;;5.55;3.47;;;12.20;80.50;;;10.52;88.89;96435.97;4967020;28;20425;-67
2021/10/20 00:26:30;;;;;;;4.28;3.33;;;12.20;80.50;;;10.50;88.81;96435.34;4984945;28;20458;-67
2021/10/20 00:28:55;;;;;;;5.10;3.45;;;12.10;80.70;;;10.48;88.86;96429.44;4957466;28;20030;-67
2021/10/20 00:31:21;;;;;;;4.93;3.38;;;12.20;80.70;;;10.45;90.06;96428.00;4990391;28;20030;-67
2021/10/20 00:33:47;;;;;;;4.65;3.35;;;12.10;80.70;;;10.42;88.98;96425.72;4992887;28;20022;-67
2021/10/20 00:36:13;;;;;;;4.75;3.55;;;12.10;80.80;;;10.41;89.87;96418.84;4998094;28;20093;-67
2021/10/20 00:38:39;;;;;;;4.72;3.42;;;12.10;80.70;;;10.38;89.88;96419.97;4945432;28;20035;-67
2021/10/20 00:41:04;;;;;;;4.72;3.30;;;12.10;80.70;;;10.36;89.92;96416.72;4984417;28;20054;-67
2021/10/20 00:43:30;;;;;;;4.40;3.60;;;12.00;80.70;;;10.31;89.22;96413.81;4989284;28;20034;-67
2021/10/20 00:45:56;;;;;;;4.93;3.65;;;12.00;80.60;;;10.30;88.98;96404.28;4957279;28;20109;-67
2021/10/20 00:48:21;;;;;;;5.47;3.55;;;12.00;80.70;;;10.26;89.07;96397.78;4990448;28;20118;-67
2021/10/20 00:50:47;;;;;;;4.97;3.00;;;12.00;80.70;;;10.25;89.09;96401.41;4988845;28;20058;-68
2021/10/20 00:53:13;;;;;;;5.82;3.33;;;11.90;80.80;;;10.22;89.95;96391.25;4988983;28;20037;-65
2021/10/20 00:55:39;;;;;;;6.07;3.40;;;11.90;80.90;;;10.22;89.65;96396.50;4972404;28;20045;-66
2021/10/20 00:58:05;;;;;;;4.78;3.05;;;11.90;81.30;;;10.22;89.95;96388.63;4988836;28;20707;-66
2021/10/20 01:00:30;;;;;;;5.05;2.72;;;11.90;81.20;;;10.21;89.77;96381.72;4973030;28;20442;-66
2021/10/20 01:02:56;;;;;;;3.53;2.40;;;11.90;81.40;;;10.22;89.86;96383.34;4953645;28;20125;-66
2021/10/20 01:05:23;;;;;;;2.97;2.00;;;11.90;81.50;;;10.23;90.62;96374.47;4987594;28;20084;-67
2021/10/20 01:07:49;;;;;;;2.90;2.13;;;11.90;81.70;;;10.26;90.66;96374.09;4969033;28;20105;-66
2021/10/20 01:10:15;;;;;;;2.72;2.10;;;12.00;81.70;;;10.28;91.44;96376.56;4938039;28;20126;-66
2021/10/20 01:12:41;;;;;;;3.30;1.90;;;12.00;81.80;;;10.27;91.50;96365.22;4962448;28;20045;-66
2021/10/20 01:15:16;;;;;;;4.38;2.30;;;12.00;82.20;;;10.31;91.19;96361.22;4951471;28;20034;-66
2021/10/20 01:17:41;;;;;;;4.47;1.95;;;12.00;82.10;;;10.33;90.78;96363.69;4995405;23;20050;-65
2021/10/20 01:20:08;;;;;;;2.45;1.63;;;12.00;82.10;;;10.35;91.37;96357.25;4931476;28;20477;-65
2021/10/20 01:22:34;;;;;;;2.58;1.60;;;12.10;82.10;;;10.38;91.14;96354.25;4936688;28;20112;-65
2021/10/20 01:25:00;;;;;;;2.15;1.60;;;12.10;82.00;;;10.39;91.38;96358.50;4952859;28;20511;-65
2021/10/20 01:27:26;;;;;;;2.33;1.80;;;12.10;81.90;;;10.41;91.82;96356.53;4958364;28;20035;-65
2021/10/20 01:29:52;;;;;;;4.18;1.77;;;12.10;81.80;;;10.43;91.02;96344.03;4958998;28;20045;-65
2021/10/20 01:32:18;;;;;;;2.70;1.50;;;12.10;81.90;;;10.46;91.31;96342.03;4953642;28;20046;-65
2021/10/20 01:34:44;;;;;;;3.40;1.67;;;12.10;81.90;;;10.46;91.68;96342.84;4994625;28;20158;-65
2021/10/20 01:37:10;;;;;;;2.30;1.65;;;12.10;81.90;;;10.48;91.32;96340.03;4962999;28;20058;-65
2021/10/20 01:39:36;;;;;;;3.38;1.80;;;12.10;82.00;;;10.48;91.45;96329.50;4957599;28;20040;-66
2021/10/20 01:42:02;;;;;;;2.85;1.90;;;12.10;82.00;;;10.45;92.05;96332.50;4967237;28;20057;-65
2021/10/20 01:44:28;;;;;;;2.92;2.28;;;12.10;82.00;;;10.45;90.98;96335.13;4956804;28;20026;-65
2021/10/20 01:46:53;;;;;;;2.75;1.63;;;12.10;82.00;;;10.43;91.08;96336.13;4976107;28;20072;-65
2021/10/20 01:49:19;;;;;;;2.50;1.52;;;12.00;82.00;;;10.40;91.61;96328.56;4991106;28;20442;-65
2021/10/20 01:51:45;;;;;;;2.85;1.67;;;12.00;82.10;;;10.41;90.89;96326.78;4956364;28;20042;-65
2021/10/20 01:54:13;;;;;;;2.40;1.55;;;12.00;82.00;;;10.41;91.37;96319.72;4995241;28;20149;-65
2021/10/20 01:56:38;;;;;;;2.35;1.50;;;12.00;82.00;;;10.40;90.99;96318.06;4943590;28;20082;-65
2021/10/20 01:59:04;;;;;;;2.30;1.52;;;12.00;82.00;;;10.39;92.13;96305.91;4981528;28;20428;-65
2021/10/20 02:01:30;;;;;;;5.32;1.92;;;12.00;82.10;;;10.39;91.44;96310.34;4963427;28;20042;-65
2021/10/20 02:03:55;;;;;;;4.28;1.60;;;12.00;82.00;;;10.37;90.98;96307.09;4968485;28;20044;-66
2021/10/20 02:06:21;;;;;;;2.95;1.80;;;12.00;82.10;;;10.35;91.67;96304.66;4968688;28;20031;-65
2021/10/20 02:08:47;;;;;;;3.30;1.63;;;12.00;81.90;;;10.34;91.84;96299.56;4960985;28;20027;-65
2021/10/20 02:11:13;;;;;;;2.03;1.40;;;12.00;81.90;;;10.31;90.98;96298.13;4962711;28;20043;-65
2021/10/20 02:13:39;;;;;;;3.45;1.70;;;11.90;82.00;;;10.30;92.06;96301.75;4965049;28;20513;-65
2021/10/20 02:16:05;;;;;;;3.65;1.80;;;11.90;81.90;;;10.29;91.29;96289.59;4978183;28;20030;-65
2021/10/20 02:18:31;;;;;;;2.17;1.38;;;12.00;81.70;;;10.29;91.46;96288.78;4966232;28;20109;-65
2021/10/20 02:20:57;;;;;;;2.70;1.60;;;12.00;81.80;;;10.28;91.78;96287.97;4968209;28;20038;-65
2021/10/20 02:23:22;;;;;;;2.65;1.70;;;12.00;81.60;;;10.24;91.56;96276.19;4967213;28;20514;-65
2021/10/20 02:25:48;;;;;;;2.08;1.40;;;12.00;81.60;;;10.24;91.83;96278.84;4959273;28;20027;-65
2021/10/20 02:28:14;;;;;;;4.65;1.70;;;11.90;81.60;;;10.20;91.37;96271.47;4968187;28;20034;-65
2021/10/20 02:30:41;;;;;;;3.35;1.67;;;11.90;81.50;;;10.16;90.88;96268.34;4968846;28;20083;-65
2021/10/20 02:33:07;;;;;;;2.28;1.40;;;11.80;81.50;;;10.11;91.93;96266.28;4971674;28;20039;-65
2021/10/20 02:35:32;;;;;;;3.78;2.00;;;11.80;81.50;;;10.09;90.80;96272.72;4936882;28;20057;-65
2021/10/20 02:37:59;;;;;;;2.10;1.58;;;11.70;81.70;;;10.05;90.93;96269.66;4971929;28;20045;-65
2021/10/20 02:40:25;;;;;;;3.22;1.70;;;11.70;81.80;;;10.00;91.23;96269.38;4956478;28;20042;-65
2021/10/20 02:42:50;;;;;;;2.55;1.65;;;11.70;81.70;;;9.96;91.35;96273.38;4972056;28;20043;-65
2021/10/20 02:45:16;;;;;;;2.28;1.58;;;11.60;81.80;;;9.92;92.07;96271.25;4978602;28;20042;-65
2021/10/20 02:47:42;;;;;;;2.08;1.60;;;11.60;81.70;;;9.87;90.62;96265.72;4970348;28;20133;-65
2021/10/20 02:50:09;;;;;;;3.67;1.75;;;11.50;81.70;;;9.83;91.63;96273.16;4956120;28;20092;-65
2021/10/20 02:52:34;;;;;;;4.25;1.70;;;11.50;81.70;;;9.76;91.03;96254.69;4974835;28;20096;-65
2021/10/20 02:55:00;;;;;;;3.25;1.98;;;11.50;81.80;;;9.73;92.25;96264.72;4982688;28;20475;-65
2021/10/20 02:57:26;;;;;;;3.25;1.98;;;11.40;81.70;;;9.69;91.25;96260.81;4971699;28;20134;-65
2021/10/20 02:59:52;;;;;;;4.25;1.70;;;11.40;81.80;;;9.64;91.47;96250.84;4971130;28;20046;-65
2021/10/20 03:02:18;;;;;;;3.50;1.80;;;11.30;81.80;;;9.59;90.87;96253.22;4971587;28;20385;-65
2021/10/20 03:04:44;;;;;;;4.35;1.75;;;11.30;81.70;;;9.56;91.36;96250.13;4971742;28;20031;-65
2021/10/20 03:07:09;;;;;;;4.05;1.88;;;11.20;81.70;;;9.48;91.44;96248.38;4973524;28;20031;-65
2021/10/20 03:09:35;;;;;;;2.67;1.60;;;11.10;81.60;;;9.44;91.21;96249.72;4958186;28;20574;-65
2021/10/20 03:12:01;;;;;;;3.10;1.80;;;11.10;81.50;;;9.40;91.59;96253.72;4968540;28;20078;-65
2021/10/20 03:14:27;;;;;;;2.60;1.80;;;11.10;81.60;;;9.35;91.67;96253.44;5009361;28;20030;-65
2021/10/20 03:16:52;;;;;;;2.97;1.80;;;11.10;81.60;;;9.32;91.53;96253.78;4959945;28;20085;-65
2021/10/20 03:19:18;;;;;;;3.25;1.70;;;11.00;81.70;;;9.27;92.09;96256.09;4972305;28;20031;-65
2021/10/20 03:21:44;;;;;;;2.40;1.77;;;10.90;81.80;;;9.22;91.39;96254.00;4981913;28;20030;-65
2021/10/20 03:24:10;;;;;;;2.75;1.90;;;10.90;81.90;;;9.18;91.09;96247.50;4959153;28;20042;-65
2021/10/20 03:26:36;;;;;;;3.22;1.80;;;10.80;82.00;;;9.12;90.90;96243.78;4967747;28;20414;-65
2021/10/20 03:29:01;;;;;;;2.65;1.80;;;10.80;81.90;;;9.08;91.65;96236.44;4980555;28;20037;-65
2021/10/20 03:31:27;;;;;;;3.22;1.98;;;10.70;81.90;;;9.02;90.84;96237.13;4972664;28;20065;-66
2021/10/20 03:33:53;;;;;;;3.60;2.20;;;10.60;81.80;;;8.99;90.94;96234.84;4991154;28;20214;-66
2021/10/20 03:36:19;;;;;;;3.35;2.00;;;10.60;81.80;;;8.95;91.42;96233.56;4960915;28;20532;-66
2021/10/20 03:38:44;;;;;;;2.58;2.08;;;10.60;82.00;;;8.94;91.98;96231.94;4981985;28;20516;-65
2021/10/20 03:41:10;;;;;;;3.22;2.08;;;10.60;82.30;;;8.93;92.33;96218.00;4967528;28;20039;-65
2021/10/20 03:43:37;;;;;;;3.65;2.53;;;10.60;82.70;;;8.93;92.71;96212.75;4969557;28;20043;-65
2021/10/20 03:46:02;;;;;;;3.97;2.50;;;10.60;83.20;;;8.94;92.25;96214.41;4943086;28;20126;-65
2021/10/20 03:48:28;;;;;;;3.75;2.60;;;10.60;83.10;;;8.92;93.16;96213.75;4980302;28;20031;-65
2021/10/20 03:50:54;;;;;;;4.75;2.72;;;10.60;82.90;;;8.90;93.63;96213.13;4933684;29;20058;-65
2021/10/20 03:53:20;;;;;;;4.03;2.33;;;10.60;83.00;;;8.88;93.18;96204.59;4969634;28;20610;-65
2021/10/20 03:55:45;;;;;;;4.68;2.90;;;10.60;83.40;;;8.88;93.15;96197.56;4951097;28;20031;-65
2021/10/20 03:58:11;;;;;;;5.53;2.80;;;10.60;83.70;;;8.90;92.95;96192.94;4957526;28;20093;-65
2021/10/20 04:00:37;;;;;;;4.38;2.90;;;10.60;83.70;;;8.88;93.63;96187.06;4968020;28;20153;-65
2021/10/20 04:03:03;;;;;;;4.93;2.58;;;10.60;83.90;;;8.90;94.01;96186.88;4952144;28;20112;-65
2021/10/20 04:05:28;;;;;;;3.95;2.80;;;10.60;84.10;;;8.91;94.65;96188.50;4963366;28;20122;-65
2021/10/20 04:07:54;;;;;;;3.65;2.85;;;10.50;83.70;;;8.89;94.60;96180.00;4938097;28;20039;-65
2021/10/20 04:10:23;;;;;;;3.78;2.55;;;10.50;83.60;;;8.85;93.75;96174.31;4954451;28;20042;-65
2021/10/20 04:12:49;;;;;;;3.22;2.47;;;10.50;83.70;;;8.85;93.51;96173.50;4953123;28;20562;-65
2021/10/20 04:15:16;;;;;;;4.80;2.50;;;10.50;83.80;;;8.84;94.42;96167.44;4958399;28;20030;-65
2021/10/20 04:17:41;;;;;;;5.10;2.55;;;10.50;83.70;;;8.82;94.49;96163.31;4938106;28;20483;-65
2021/10/20 04:20:13;;;;;;;4.55;2.70;;;10.50;83.70;;;8.81;94.23;96162.50;4967372;28;20032;-65
2021/10/20 04:22:39;;;;;;;4.63;2.70;;;10.50;83.70;;;8.79;94.55;96158.44;4964832;28;20038;-65
2021/10/20 04:25:06;;;;;;;5.78;2.50;;;10.50;83.60;;;8.77;94.42;96163.03;4973249;28;20038;-65
2021/10/20 04:27:32;;;;;;;4.28;2.60;;;10.50;83.50;;;8.74;93.52;96158.16;4945037;28;20035;-64
2021/10/20 04:29:59;;;;;;;51.17;40.80;;;10.40;83.30;;;8.73;94.36;96148.66;4936910;28;20037;-65
2021/10/20 04:32:27;;;;;;;107.28;90.70;;;10.40;83.30;;;8.70;94.03;96154.25;4978037;28;20464;-65
2021/10/20 04:34:53;;;;;;;47.65;41.83;;;10.40;83.40;;;8.67;94.62;96142.31;4959835;28;20065;-65
2021/10/20 04:37:24;;;;;;;12.57;9.20;;;10.40;83.30;;;8.65;93.41;96146.09;4954446;28;20172;-64
2021/10/20 04:39:56;;;;;;;101.97;83.72;;;10.40;83.20;;;8.61;93.58;96144.84;4984538;28;20042;-65
2021/10/20 04:42:23;;;;;;;59.03;46.85;;;10.30;83.10;;;8.54;94.45;96140.25;4980673;28;20118;-65
2021/10/20 04:44:49;;;;;;;13.13;10.18;;;10.20;82.80;;;8.50;93.62;96141.63;4972712;28;20035;-64
2021/10/20 04:47:15;;;;;;;5.53;4.10;;;10.20;82.40;;;8.44;92.92;96138.88;4954111;28;20030;-65
2021/10/20 04:49:41;;;;;;;4.57;2.80;;;10.10;82.20;;;8.39;92.94;96136.78;4966542;28;20205;-66
2021/10/20 04:52:07;;;;;;;4.47;2.75;;;10.10;82.30;;;8.37;93.16;96143.97;4957175;28;20057;-66
2021/10/20 04:54:33;;;;;;;3.85;2.60;;;10.10;82.30;;;8.33;92.97;96132.19;4955580;28;20448;-66
2021/10/20 04:56:58;;;;;;;7.30;3.33;;;10.00;82.40;;;8.29;92.50;96131.72;4988844;28;20030;-65
2021/10/20 04:59:27;;;;;;;5.35;2.83;;;10.00;82.60;;;8.27;92.51;96127.66;4981043;28;20065;-69
2021/10/20 05:01:53;;;;;;;4.72;2.28;;;10.00;82.60;;;8.22;92.61;96120.31;4972164;28;20042;-67
2021/10/20 05:04:21;;;;;;;6.35;2.80;;;9.90;82.70;;;8.20;92.88;96121.47;4989160;28;20388;-68
2021/10/20 05:06:47;;;;;;;3.80;2.53;;;9.90;82.80;;;8.19;93.06;96125.09;4971685;28;20045;-66
2021/10/20 05:09:13;;;;;;;4.20;2.90;;;9.90;82.90;;;8.17;93.74;96127.88;4962439;28;20030;-68
2021/10/20 05:11:39;;;;;;;3.92;2.70;;;9.90;82.90;;;8.16;92.87;96122.81;4991794;28;20459;-66
2021/10/20 05:14:04;;;;;;;4.80;2.97;;;9.90;82.80;;;8.17;92.87;96137.56;4980872;28;20046;-66
2021/10/20 05:16:30;;;;;;;5.45;3.58;;;9.90;82.80;;;8.12;92.09;96124.13;4972626;28;20038;-66
2021/10/20 05:18:56;;;;;;;5.32;3.17;;;9.70;82.20;;;8.08;92.88;96128.91;4954048;28;20092;-67
2021/10/20 05:21:21;;;;;;;25.23;20.95;;;9.70;82.40;;;8.07;92.60;96129.91;4988741;28;20031;-65
2021/10/20 05:23:50;;;;;;;23.70;18.55;;;9.70;82.80;;;8.06;92.80;96130.06;4972174;28;20063;-66
2021/10/20 05:26:17;;;;;;;11.93;9.60;;;9.70;82.80;;;8.04;92.27;96124.19;4974838;28;20395;-66
2021/10/20 05:28:43;;;;;;;4.25;3.33;;;9.70;82.80;;;8.02;92.99;96123.56;4959440;28;20034;-67
2021/10/20 05:31:08;;;;;;;3.88;2.65;;;9.60;82.60;;;7.98;92.33;96121.28;4991066;28;20053;-72
2021/10/20 05:33:34;;;;;;;3.42;2.80;;;9.60;82.90;;;7.94;93.06;96117.38;4960605;28;20037;-71
2021/10/20 05:36:00;;;;;;;46.83;35.90;;;9.60;82.90;;;7.93;93.36;96120.97;4984519;28;20522;-72
2021/10/20 05:38:26;;;;;;;44.00;34.58;;;9.60;83.20;;;7.92;93.10;96129.84;4973604;28;20052;-68
2021/10/20 05:40:51;;;;;;;17.38;12.18;;;9.70;83.50;;;7.91;93.85;96117.69;4968644;28;20039;-71
2021/10/20 05:43:19;;;;;;;5.95;4.40;;;9.60;83.40;;;7.91;93.16;96117.69;4972717;28;20042;-72
2021/10/20 05:45:46;;;;;;;5.35;3.30;;;9.60;83.20;;;7.91;93.83;96120.31;4955499;28;20043;-68
2021/10/20 05:48:12;;;;;;;4.28;2.95;;;9.70;83.30;;;7.89;94.16;96111.00;4984680;28;20400;-68
2021/10/20 05:50:37;;;;;;;9.02;3.03;;;9.60;83.30;;;7.88;93.62;96110.19;4974290;28;20053;-70
2021/10/20 05:53:03;;;;;;;9.90;7.93;;;9.60;83.20;;;7.89;94.12;96103.97;4988012;28;20038;-71
2021/10/20 05:55:29;;;;;;;19.77;14.43;;;9.60;83.40;;;7.93;93.73;96093.97;4956033;28;20037;-70
2021/10/20 05:57:54;;;;;;;29.15;14.05;;;9.70;84.00;;;7.96;94.25;96099.69;4979599;28;20401;-71
2021/10/20 06:00:20;;;;;;;22.63;10.18;;;9.80;84.50;;;8.02;95.38;96098.16;4971890;28;20031;-70
2021/10/20 06:02:46;;;;;;;23.70;16.80;;;9.80;84.70;;;8.05;95.46;96097.00;4977247;28;20157;-69
2021/10/20 06:05:12;;;;;;;46.00;33.92;;;9.90;84.50;;;8.10;96.15;96089.44;4958157;28;20311;-68
2021/10/20 06:07:46;;;;;;;27.75;18.75;;;9.90;84.70;;;8.15;96.72;96092.38;4939140;28;20049;-68
2021/10/20 06:10:13;;;;;;;23.00;18.40;;;10.00;84.80;;;8.19;96.33;96077.94;5002762;28;20050;-71
2021/10/20 06:12:42;;;;;;;8.60;6.03;;;10.10;85.00;;;8.24;96.68;96075.59;4953165;28;20050;-69
2021/10/20 06:15:08;;;;;;;6.40;4.00;;;10.10;85.20;;;8.30;97.05;96080.94;4968038;28;20720;-64
2021/10/20 06:17:37;;;;;;;6.03;3.78;;;10.10;85.10;;;8.34;97.45;96068.34;4970852;28;20435;-72
2021/10/20 06:20:08;;;;;;;5.85;3.25;;;10.20;85.00;;;8.41;97.81;96079.75;4973514;28;20392;-65
2021/10/20 06:22:34;;;;;;;4.75;3.30;;;10.30;84.90;;;8.45;96.88;96078.41;4978252;28;20114;-71
2021/10/20 06:25:00;;;;;;;5.07;3.28;;;10.40;84.70;;;8.52;96.78;96079.34;4965070;28;20069;-68
2021/10/20 06:27:25;;;;;;;5.32;2.90;;;10.40;84.60;;;8.56;96.98;96079.78;4958698;28;20025;-70
2021/10/20 06:29:52;;;;;;;4.43;2.97;;;10.50;84.40;;;8.61;96.80;96084.53;4961269;28;20038;-65
2021/10/20 06:32:18;;;;;;;4.10;2.83;;;10.50;84.30;;;8.65;97.64;96083.19;4971678;28;20053;-65
2021/10/20 06:34:43;;;;;;;4.28;2.47;;;10.60;84.30;;;8.71;96.85;96083.28;4967774;28;20130;-63
2021/10/20 06:37:09;;;;;;;5.20;4.22;;;10.70;84.20;;;8.76;97.08;96085.34;4968346;28;20031;-65
2021/10/20 06:39:35;;;;;;;7.68;4.80;;;10.70;84.00;;;8.82;97.14;96089.88;4984565;28;20627;-65
2021/10/20 06:42:01;;;;;;;7.18;5.35;;;10.80;84.00;;;8.87;96.56;96084.94;4977646;28;20475;-71
2021/10/20 06:44:27;;;;;;;7.95;5.30;;;10.80;83.40;;;8.90;96.22;96088.03;4956462;28;20045;-72
2021/10/20 06:46:52;;;;;;;11.73;7.55;;;10.90;82.80;;;8.93;96.24;96089.47;4990129;28;20484;-68
2021/10/20 06:49:18;;;;;;;10.82;7.50;;;10.90;82.40;;;8.98;95.99;96089.75;4991915;28;20041;-71
2021/10/20 06:51:44;;;;;;;10.82;5.47;;;11.00;82.30;;;9.05;95.22;96092.44;4961444;28;20607;-63
2021/10/20 06:54:17;;;;;;;7.25;5.45;;;11.10;81.90;;;9.08;95.31;96090.31;4991701;28;20092;-64
2021/10/20 06:56:44;;;;;;;9.32;6.43;;;11.10;81.60;;;9.13;94.51;96082.72;4977841;28;20042;-70
2021/10/20 06:59:10;;;;;;;8.32;5.65;;;11.10;81.10;;;9.20;94.43;96088.03;4982083;28;20403;-67
2021/10/20 07:01:36;;;;;;;5.78;4.50;;;11.30;80.90;;;9.32;93.98;96081.34;4965635;28;20083;-73
2021/10/20 07:04:01;;;;;;;5.68;3.70;;;11.50;80.80;;;9.48;94.82;96082.97;4975256;28;20034;-68
2021/10/20 07:06:28;;;;;;;4.65;3.17;;;11.80;81.30;;;9.65;95.66;96081.78;4959721;28;20031;-65
2021/10/20 07:08:55;;;;;;;4.43;2.85;;;12.00;81.00;;;9.83;95.98;96091.91;4994906;28;20048;-76
2021/10/20 07:11:22;;;;;;;5.38;3.22;;;12.20;80.50;;;10.02;94.26;96098.38;4983032;28;20031;-67
2021/10/20 07:13:48;;;;;;;8.77;3.78;;;12.50;79.90;;;10.21;94.86;96099.63;4993218;28;20056;-65
2021/10/20 07:16:14;;;;;;;7.25;3.55;;;12.80;79.00;;;10.41;94.12;96104.09;4983542;28;20039;-66
2021/10/20 07:18:40;;;;;;;6.47;3.10;;;13.10;78.00;;;10.61;94.12;96100.81;4999621;23;20058;-70
2021/10/20 07:21:06;;;;;;;4.03;2.72;;;13.40;76.90;;;10.82;93.09;96090.25;4989119;28;20525;-70
2021/10/20 07:23:31;;;;;;;4.68;2.72;;;13.70;75.80;;;11.02;92.88;96093.88;5012716;28;20042;-68
2021/10/20 07:25:57;;;;;;;6.25;2.50;;;14.00;74.50;;;11.21;91.75;96100.28;5010043;28;20581;-72
2021/10/20 07:28:23;;;;;;;6.32;2.70;;;14.10;73.60;;;11.41;91.15;96105.66;4998501;28;20032;-69
2021/10/20 07:30:49;;;;;;;8.57;2.60;;;14.40;73.00;;;11.59;90.61;96098.06;4997447;28;20128;-69
2021/10/20 07:33:14;;;;;;;5.07;2.50;;;14.60;73.00;;;11.82;90.12;96091.72;4998512;28;20045;-67
2021/10/20 07:35:40;;;;;;;4.30;2.40;;;15.00;71.50;;;12.01;88.95;96087.53;4996553;28;20091;-71
2021/10/20 07:38:06;;;;;;;4.43;2.72;;;15.10;71.00;;;12.20;88.59;96090.22;5014847;28;20483;-68
2021/10/20 07:40:32;;;;;;;4.20;2.50;;;15.40;70.40;;;12.40;88.02;96084.16;4998018;28;20478;-70
2021/10/20 07:42:57;;;;;;;4.03;2.28;;;15.60;69.40;;;12.62;87.27;96082.97;4999580;28;20576;-68
2021/10/20 07:45:24;;;;;;;5.47;2.40;;;15.80;68.30;;;12.82;85.75;96086.44;5010641;28;20059;-69
2021/10/20 07:47:50;;;;;;;5.55;2.90;;;15.90;68.10;;;13.00;85.12;96085.84;5017674;28;20049;-69
2021/10/20 07:50:17;;;;;;;7.53;2.75;;;16.10;67.50;;;13.23;85.25;96080.16;4978407;28;20653;-70
2021/10/20 07:52:48;;;;;;;4.65;2.50;;;16.50;66.80;;;13.39;84.32;96074.44;4992515;28;20038;-69
2021/10/20 07:55:21;;;;;;;4.95;2.30;;;16.80;66.20;;;13.62;82.04;96092.47;4986881;28;20051;-69
2021/10/20 07:57:47;;;;;;;4.90;2.25;;;17.00;65.20;;;13.79;83.28;96092.81;4989919;28;20144;-68
2021/10/20 08:00:13;;;;;;;4.25;1.95;;;17.10;64.70;;;14.00;82.77;96092.53;5003272;28;20044;-66
2021/10/20 08:02:39;;;;;;;3.65;2.33;;;17.50;64.00;;;14.20;83.18;96096.91;4998429;28;20030;-68
2021/10/20 08:05:06;;;;;;;5.65;3.80;;;17.60;63.20;;;14.34;82.53;96093.19;4984095;28;20037;-67
2021/10/20 08:07:31;;;;;;;10.27;6.72;;;17.80;62.00;;;14.53;80.34;96089.66;4976006;28;20435;-67
2021/10/20 08:09:57;;;;;;;10.63;7.30;;;18.00;61.40;;;14.70;81.68;96093.38;5011197;28;20053;-66
2021/10/20 08:12:23;;;;;;;5.60;3.97;;;18.30;61.30;;;14.87;80.81;96098.97;5006757;28;20040;-66
2021/10/20 08:14:53;;;;;;;2.50;1.45;;;18.50;60.30;;;15.08;80.13;96095.13;4999228;28;20037;-69
2021/10/20 08:17:19;;;;;;;2.85;1.85;;;18.70;59.20;;;15.30;78.50;96096.34;5018871;28;20079;-68
2021/10/20 08:19:45;;;;;;;2.58;1.40;;;18.90;58.60;;;15.54;77.90;96088.56;4978243;28;20537;-70
2021/10/20 08:22:11;;;;;;;1.92;1.50;;;19.20;56.70;;;15.77;77.72;96083.44;4985962;28;20048;-71
2021/10/20 08:24:37;;;;;;;4.10;1.50;;;19.40;56.80;;;16.03;77.37;96089.47;4998110;28;20017;-75
2021/10/20 08:27:02;;;;;;;3.75;1.65;;;19.70;55.90;;;16.31;76.26;96080.97;4981757;28;20491;-67
2021/10/20 08:29:29;;;;;;;3.53;1.35;;;19.90;54.50;;;16.55;75.27;96074.69;5007155;28;20427;-67
2021/10/20 08:31:55;;;;;;;2.55;1.40;;;20.10;53.50;;;16.82;73.56;96072.47;4985504;28;20037;-67
2021/10/20 08:34:22;;;;;;;6.22;1.73;;;20.40;52.50;;;17.07;72.75;96067.75;5021030;28;20029;-67
2021/10/20 08:36:48;;;;;;;3.13;1.52;;;20.70;51.60;;;17.29;72.13;96057.38;5021837;28;20076;-68
2021/10/20 08:39:15;;;;;;;3.33;1.50;;;21.10;49.80;;;17.53;70.26;96063.47;4992389;28;20100;-68
2021/10/20 08:41:41;;;;;;;3.05;1.60;;;21.40;48.60;;;17.81;69.99;96064.59;4978319;28;21527;-68
2021/10/20 08:44:07;;;;;;;3.00;1.70;;;21.90;48.70;;;18.12;69.32;96061.53;4998469;28;20109;-68
2021/10/20 08:46:33;;;;;;;2.55;1.50;;;22.30;47.50;;;18.41;68.66;96045.53;4993974;28;20034;-68
2021/10/20 08:49:00;;;;;;;3.13;1.40;;;22.60;46.30;;;18.66;66.44;96040.69;5003504;28;20048;-68
2021/10/20 08:51:26;;;;;;;2.58;1.60;;;22.70;45.00;;;18.91;66.70;96040.28;4998409;28;20382;-67
2021/10/20 08:53:52;;;;;;;4.93;1.50;;;23.20;44.90;;;19.12;65.82;96042.22;4993681;28;20038;-67
2021/10/20 08:56:18;;;;;;;3.40;1.42;;;23.30;44.70;;;19.32;65.05;96039.03;4998433;28;20044;-68
2021/10/20 08:58:44;;;;;;;3.30;1.63;;;23.50;43.10;;;19.54;63.97;96039.91;4996336;28;20113;-66
2021/10/20 09:01:10;;;;;;;3.83;1.33;;;23.60;42.80;;;19.71;62.73;96044.41;4995007;28;20071;-69
2021/10/20 09:03:36;;;;;;;3.10;1.42;;;24.00;42.20;;;19.88;62.26;96035.25;4987355;28;20037;-71
2021/10/20 09:06:02;;;;;;;2.92;1.55;;;24.30;41.20;;;20.05;61.68;96037.06;4994654;28;20481;-68
2021/10/20 09:08:38;;;;;;;4.63;1.45;;;24.30;39.50;;;20.14;55.44;96028.38;4979079;28;20091;-68
2021/10/20 09:11:35;;;;;;;3.13;1.50;;;24.60;40.00;;;20.23;53.65;96011.88;5012046;28;20041;-69
2021/10/20 09:14:08;;;;;;;3.38;1.95;;;24.60;37.60;;;20.29;56.04;96018.88;4998483;28;20046;-67
2021/10/20 09:16:36;;;;;;;2.97;1.80;;;25.00;37.90;;;20.38;57.91;96012.84;4999697;28;20190;-68
2021/10/20 09:19:22;;;;;;;3.10;1.70;;;25.60;37.40;;;20.48;53.42;96012.97;4997517;28;20081;-68
2021/10/20 09:21:56;;;;;;;3.22;1.70;;;26.10;36.40;;;20.58;53.70;96009.56;4960930;28;20037;-69
2021/10/20 09:24:38;;;;;;;2.72;1.45;;;26.30;35.90;;;20.53;51.34;95993.50;4991062;28;20037;-70
2021/10/20 09:27:04;;;;;;;2.75;1.58;;;25.70;34.90;;;20.57;56.48;95997.28;4992747;28;20526;-69
2021/10/20 09:29:32;;;;;;;2.90;1.45;;;26.10;33.40;;;20.66;54.10;95993.09;5003433;28;20038;-68
2021/10/20 09:31:58;;;;;;;3.63;2.15;;;26.60;34.00;;;20.94;56.24;95985.81;4979148;28;20517;-68
2021/10/20 09:34:34;;;;;;;3.15;1.75;;;27.10;32.70;;;21.26;51.38;95981.22;4979029;28;20045;-68
2021/10/20 09:37:01;;;;;;;2.97;1.50;;;27.60;31.80;;;21.55;54.64;95980.84;5004648;28;20183;-68
2021/10/20 09:39:27;;;;;;;2.35;1.40;;;28.00;31.20;;;21.84;54.18;95971.31;4996211;28;20022;-68
2021/10/20 09:42:05;;;;;;;2.15;1.20;;;27.90;32.10;;;22.00;48.83;95970.31;5012566;28;20038;-68
2021/10/20 09:44:44;;;;;;;4.43;1.60;;;27.20;33.30;;;21.91;51.49;95965.69;5012864;28;20539;-68
2021/10/20 09:47:10;;;;;;;2.40;1.50;;;25.60;35.10;;;21.68;50.70;95961.59;4982343;28;20091;-68
2021/10/20 09:49:44;;;;;;;2.70;1.40;;;24.10;36.90;;;21.32;50.88;95966.81;4992621;28;20026;-68
2021/10/20 09:52:10;;;;;;;3.88;1.33;;;23.30;39.50;;;21.09;51.11;95957.31;4983660;28;20596;-68
2021/10/20 09:54:36;;;;;;;2.95;1.38;;;23.10;40.90;;;20.83;51.67;95960.06;5011475;28;20029;-68
2021/10/20 09:57:03;;;;;;;4.25;1.20;;;22.70;41.30;;;20.60;51.82;95962.03;5005123;28;20045;-66
2021/10/20 09:59:30;;;;;;;3.80;1.40;;;22.50;42.10;;;20.46;51.69;95953.63;4970257;28;20128;-67
2021/10/20 10:01:55;;;;;;;2.33;1.45;;;22.60;42.40;;;20.34;52.12;95946.81;5011169;28;20041;-66
2021/10/20 10:04:21;;;;;;;5.03;1.30;;;22.50;42.30;;;20.26;52.39;95937.41;5011171;28;20060;-66
2021/10/20 10:06:49;;;;;;;1.90;1.25;;;22.40;42.90;;;20.21;52.60;95933.88;5000627;28;20069;-66
2021/10/20 10:09:14;;;;;;;2.85;1.20;;;22.50;43.90;;;20.18;52.54;95927.19;4978521;28;20088;-66
2021/10/20 10:12:08;;;;;;;3.35;1.45;;;22.50;43.30;;;20.18;50.09;95916.50;4989113;28;20049;-66
2021/10/20 10:14:42;;;;;;;2.92;1.38;;;22.60;42.30;;;20.16;50.27;95906.06;4992086;28;20069;-66
2021/10/20 10:17:08;;;;;;;4.20;1.45;;;22.60;41.30;;;20.23;52.26;95915.72;4958671;28;20052;-67
2021/10/20 10:19:37;;;;;;;3.38;1.40;;;22.70;40.80;;;20.30;50.49;95913.66;4969380;28;20391;-66
2021/10/20 10:22:26;;;;;;;4.47;1.25;;;23.00;40.20;;;20.43;48.84;95908.72;4988823;28;20074;-67